createdAt,value
2018-05-25T00:00:01.848Z,12.80
2018-05-25T00:01:01.869Z,12.20
2018-05-25T00:02:01.890Z,12.80
2018-05-25T00:03:01.913Z,12.40
2018-05-25T00:04:01.939Z,12.60
2018-05-25T00:05:01.958Z,12.70
2018-05-25T00:06:01.978Z,12.80
2018-05-25T00:07:02.003Z,12.50
2018-05-25T00:08:02.021Z,12.10
2018-05-25T00:09:02.044Z,12.90
2018-05-25T00:10:02.065Z,12.80
2018-05-25T00:11:02.087Z,12.30
2018-05-25T00:12:02.108Z,12.80
2018-05-25T00:13:02.130Z,12.50
2018-05-25T00:14:02.151Z,12.60
2018-05-25T00:15:02.174Z,13.10
2018-05-25T00:16:02.195Z,12.50
2018-05-25T00:17:02.218Z,13.20
2018-05-25T00:18:02.239Z,12.90
2018-05-25T00:19:02.265Z,13.40
2018-05-25T00:20:02.281Z,13.00
2018-05-25T00:21:02.306Z,13.50
2018-05-25T00:22:02.325Z,13.10
2018-05-25T00:23:02.346Z,13.80
2018-05-25T00:24:02.370Z,13.10
2018-05-25T00:25:02.392Z,14.20
2018-05-25T00:26:02.411Z,13.20
2018-05-25T00:27:02.433Z,13.60
2018-05-25T00:28:02.455Z,13.50
2018-05-25T00:29:02.477Z,13.50
2018-05-25T00:30:02.498Z,13.70
2018-05-25T00:31:02.519Z,13.40
2018-05-25T00:32:02.540Z,13.30
2018-05-25T00:33:02.563Z,13.50
2018-05-25T00:34:02.583Z,13.60
2018-05-25T00:35:02.606Z,13.80
2018-05-25T00:36:02.628Z,13.80
2018-05-25T00:37:02.651Z,14.70
2018-05-25T00:38:02.670Z,14.00
2018-05-25T00:39:02.693Z,13.50
2018-05-25T00:40:02.715Z,13.20
2018-05-25T00:41:02.736Z,13.50
2018-05-25T00:42:02.757Z,12.90
2018-05-25T00:43:02.778Z,13.90
2018-05-25T00:44:02.811Z,13.90
2018-05-25T00:45:02.830Z,13.80
2018-05-25T00:46:02.845Z,13.20
2018-05-25T00:47:02.865Z,13.30
2018-05-25T00:48:02.888Z,13.30
2018-05-25T00:49:02.909Z,12.90
2018-05-25T00:50:02.931Z,13.30
2018-05-25T00:51:02.953Z,12.90
2018-05-25T00:52:02.975Z,13.00
2018-05-25T00:53:03.000Z,13.50
2018-05-25T00:54:03.017Z,13.50
2018-05-25T00:55:03.039Z,13.20
2018-05-25T00:56:03.062Z,13.30
2018-05-25T00:57:03.083Z,13.50
2018-05-25T00:58:03.104Z,13.50
2018-05-25T00:59:03.126Z,13.20
2018-05-25T01:00:03.147Z,12.60
2018-05-25T01:01:03.176Z,12.80
2018-05-25T01:02:03.190Z,13.30
2018-05-25T01:03:03.211Z,12.60
2018-05-25T01:04:03.234Z,13.00
2018-05-25T01:05:03.256Z,12.90
2018-05-25T01:06:03.278Z,12.60
2018-05-25T01:07:03.300Z,12.30
2018-05-25T01:08:03.321Z,13.70
2018-05-25T01:09:03.343Z,12.50
2018-05-25T01:10:03.366Z,12.70
2018-05-25T01:11:03.387Z,13.20
2018-05-25T01:12:03.407Z,13.80
2018-05-25T01:13:03.429Z,12.80
2018-05-25T01:14:03.452Z,12.10
2018-05-25T01:15:03.475Z,12.90
2018-05-25T01:16:03.494Z,13.50
2018-05-25T01:17:03.519Z,12.70
2018-05-25T01:18:03.537Z,13.10
2018-05-25T01:19:03.559Z,13.40
2018-05-25T01:20:03.584Z,13.50
2018-05-25T01:21:03.602Z,13.10
2018-05-25T01:22:03.624Z,13.50
2018-05-25T01:23:03.646Z,12.80
2018-05-25T01:24:03.667Z,13.70
2018-05-25T01:25:03.689Z,13.30
2018-05-25T01:26:03.710Z,14.00
2018-05-25T01:27:03.731Z,14.10
2018-05-25T01:28:03.755Z,14.40
2018-05-25T01:29:03.775Z,14.60
2018-05-25T01:30:03.797Z,14.10
2018-05-25T01:31:03.817Z,14.50
2018-05-25T01:32:03.840Z,13.80
2018-05-25T01:33:03.863Z,14.30
2018-05-25T01:34:03.883Z,14.20
2018-05-25T01:35:03.905Z,13.80
2018-05-25T01:36:03.926Z,14.30
2018-05-25T01:37:03.949Z,15.50
2018-05-25T01:38:03.970Z,15.10
2018-05-25T01:39:03.992Z,13.50
2018-05-25T01:40:04.013Z,14.30
2018-05-25T01:41:04.037Z,14.70
2018-05-25T01:42:04.055Z,14.90
2018-05-25T01:43:04.078Z,14.70
2018-05-25T01:44:04.100Z,13.80
2018-05-25T01:45:04.121Z,13.80
2018-05-25T01:46:04.145Z,14.70
2018-05-25T01:47:04.164Z,15.30
2018-05-25T01:48:04.189Z,13.70
2018-05-25T01:49:04.210Z,14.30
2018-05-25T01:50:04.228Z,14.80
2018-05-25T01:51:04.250Z,15.00
2018-05-25T01:52:04.273Z,14.60
2018-05-25T01:53:04.293Z,14.30
2018-05-25T01:54:04.314Z,14.40
2018-05-25T01:55:04.337Z,14.60
2018-05-25T01:56:04.358Z,14.70
2018-05-25T01:57:04.383Z,15.00
2018-05-25T01:58:04.401Z,14.40
2018-05-25T01:59:04.423Z,15.30
2018-05-25T02:00:04.444Z,15.00
2018-05-25T02:01:04.466Z,14.50
2018-05-25T02:02:04.493Z,14.30
2018-05-25T02:03:04.510Z,14.90
2018-05-25T02:04:04.531Z,14.40
2018-05-25T02:05:04.554Z,14.60
2018-05-25T02:06:04.574Z,14.40
2018-05-25T02:07:04.598Z,14.60
2018-05-25T02:08:04.618Z,14.80
2018-05-25T02:09:04.639Z,14.70
2018-05-25T02:10:04.661Z,14.80
2018-05-25T02:11:04.705Z,14.10
2018-05-25T02:12:04.703Z,14.40
2018-05-25T02:13:04.726Z,15.10
2018-05-25T02:14:04.747Z,14.70
2018-05-25T02:15:04.769Z,15.60
2018-05-25T02:16:04.789Z,15.20
2018-05-25T02:17:04.812Z,15.10
2018-05-25T02:18:04.832Z,15.20
2018-05-25T02:19:04.854Z,14.40
2018-05-25T02:20:04.875Z,15.90
2018-05-25T02:21:04.898Z,14.90
2018-05-25T02:22:04.923Z,15.30
2018-05-25T02:23:04.941Z,14.80
2018-05-25T02:24:04.962Z,15.00
2018-05-25T02:25:04.984Z,15.10
2018-05-25T02:26:05.006Z,15.10
2018-05-25T02:27:05.027Z,15.70
2018-05-25T02:28:05.048Z,15.90
2018-05-25T02:29:05.069Z,14.90
2018-05-25T02:30:05.091Z,16.10
2018-05-25T02:31:05.112Z,15.70
2018-05-25T02:32:05.136Z,14.90
2018-05-25T02:33:05.156Z,14.90
2018-05-25T02:34:05.179Z,15.40
2018-05-25T02:35:05.198Z,16.10
2018-05-25T02:36:05.223Z,15.30
2018-05-25T02:37:05.244Z,15.30
2018-05-25T02:38:05.263Z,16.10
2018-05-25T02:39:05.285Z,15.40
2018-05-25T02:40:05.306Z,16.10
2018-05-25T02:41:05.328Z,15.40
2018-05-25T02:42:05.349Z,15.50
2018-05-25T02:43:05.371Z,16.10
2018-05-25T02:44:05.393Z,15.80
2018-05-25T02:45:05.415Z,16.50
2018-05-25T02:46:05.438Z,16.30
2018-05-25T02:47:05.457Z,16.40
2018-05-25T02:48:05.478Z,16.40
2018-05-25T02:49:05.500Z,16.60
2018-05-25T02:50:05.520Z,15.80
2018-05-25T02:51:05.542Z,16.20
2018-05-25T02:52:05.563Z,17.00
2018-05-25T02:53:05.586Z,16.10
2018-05-25T02:54:05.606Z,16.20
2018-05-25T02:55:05.639Z,16.50
2018-05-25T02:56:05.650Z,16.40
2018-05-25T02:57:05.672Z,16.80
2018-05-25T02:58:05.692Z,16.70
2018-05-25T02:59:05.713Z,16.80
2018-05-25T03:00:05.736Z,16.00
2018-05-25T03:01:05.758Z,16.30
2018-05-25T03:02:05.777Z,16.40
2018-05-25T03:03:05.799Z,16.30
2018-05-25T03:04:05.821Z,15.70
2018-05-25T03:05:05.844Z,16.70
2018-05-25T03:06:05.862Z,16.60
2018-05-25T03:07:05.883Z,17.00
2018-05-25T03:08:05.906Z,16.30
2018-05-25T03:09:05.927Z,17.20
2018-05-25T03:10:05.948Z,17.40
2018-05-25T03:11:05.969Z,16.40
2018-05-25T03:12:05.990Z,17.50
2018-05-25T03:13:06.013Z,16.60
2018-05-25T03:14:06.033Z,16.40
2018-05-25T03:15:06.055Z,17.30
2018-05-25T03:16:06.079Z,17.00
2018-05-25T03:17:06.108Z,16.60
2018-05-25T03:18:06.118Z,17.40
2018-05-25T03:19:06.143Z,17.60
2018-05-25T03:20:06.160Z,17.40
2018-05-25T03:21:06.181Z,17.00
2018-05-25T03:22:06.202Z,17.30
2018-05-25T03:23:06.223Z,17.70
2018-05-25T03:24:06.248Z,17.50
2018-05-25T03:25:06.266Z,17.90
2018-05-25T03:26:06.310Z,17.40
2018-05-25T03:27:06.309Z,17.40
2018-05-25T03:28:06.331Z,16.50
2018-05-25T03:29:06.353Z,16.90
2018-05-25T03:30:06.373Z,16.70
2018-05-25T03:31:06.396Z,17.30
2018-05-25T03:32:06.415Z,17.70
2018-05-25T03:33:06.438Z,17.40
2018-05-25T03:34:06.463Z,16.80
2018-05-25T03:35:06.479Z,17.90
2018-05-25T03:36:06.500Z,17.10
2018-05-25T03:37:06.523Z,17.40
2018-05-25T03:38:06.544Z,18.10
2018-05-25T03:39:06.567Z,17.50
2018-05-25T03:40:06.587Z,17.30
2018-05-25T03:41:06.607Z,16.60
2018-05-25T03:42:06.628Z,18.20
2018-05-25T03:43:06.651Z,17.70
2018-05-25T03:44:06.672Z,16.90
2018-05-25T03:45:06.692Z,17.30
2018-05-25T03:46:06.715Z,17.10
2018-05-25T03:47:06.736Z,17.40
2018-05-25T03:48:06.756Z,17.20
2018-05-25T03:49:06.778Z,17.40
2018-05-25T03:50:06.799Z,17.30
2018-05-25T03:51:06.820Z,17.00
2018-05-25T03:52:06.842Z,17.50
2018-05-25T03:53:06.864Z,18.20
2018-05-25T03:54:06.884Z,16.80
2018-05-25T03:55:06.905Z,17.80
2018-05-25T03:56:06.926Z,17.20
2018-05-25T03:57:06.949Z,17.60
2018-05-25T03:58:06.970Z,17.10
2018-05-25T03:59:06.990Z,17.10
2018-05-25T04:00:07.012Z,18.00
2018-05-25T04:01:07.081Z,17.30
2018-05-25T04:02:07.054Z,17.80
2018-05-25T04:03:07.076Z,17.60
2018-05-25T04:04:07.114Z,17.20
2018-05-25T04:05:07.119Z,17.30
2018-05-25T04:06:07.140Z,17.20
2018-05-25T04:07:07.162Z,17.10
2018-05-25T04:08:07.187Z,17.40
2018-05-25T04:09:07.206Z,17.30
2018-05-25T04:10:07.226Z,17.00
2018-05-25T04:11:07.247Z,17.00
2018-05-25T04:12:07.268Z,17.50
2018-05-25T04:13:07.289Z,16.50
2018-05-25T04:14:07.311Z,17.20
2018-05-25T04:15:07.332Z,16.80
2018-05-25T04:16:07.354Z,17.30
2018-05-25T04:17:07.379Z,17.40
2018-05-25T04:18:07.398Z,17.90
2018-05-25T04:19:07.419Z,17.00
2018-05-25T04:20:07.440Z,17.30
2018-05-25T04:21:07.461Z,17.60
2018-05-25T04:22:07.482Z,16.80
2018-05-25T04:23:07.505Z,17.30
2018-05-25T04:24:07.528Z,17.00
2018-05-25T04:25:07.547Z,17.40
2018-05-25T04:26:07.569Z,17.00
2018-05-25T04:27:07.590Z,16.80
2018-05-25T04:28:07.611Z,17.10
2018-05-25T04:29:07.633Z,17.60
2018-05-25T04:30:07.653Z,17.80
2018-05-25T04:31:07.675Z,17.60
2018-05-25T04:32:07.698Z,16.00
2018-05-25T04:33:07.719Z,16.70
2018-05-25T04:34:07.739Z,16.70
2018-05-25T04:35:07.761Z,17.40
2018-05-25T04:36:07.783Z,16.30
2018-05-25T04:37:07.804Z,16.60
2018-05-25T04:38:07.826Z,17.30
2018-05-25T04:39:07.847Z,17.50
2018-05-25T04:40:07.869Z,16.70
2018-05-25T04:41:07.891Z,17.10
2018-05-25T04:42:07.912Z,16.70
2018-05-25T04:43:08.000Z,16.70
2018-05-25T04:44:07.955Z,16.40
2018-05-25T04:45:07.980Z,16.60
2018-05-25T04:46:07.998Z,17.00
2018-05-25T04:47:08.020Z,16.90
2018-05-25T04:48:08.041Z,16.80
2018-05-25T04:49:08.063Z,16.30
2018-05-25T04:50:08.083Z,16.30
2018-05-25T04:51:08.106Z,16.60
2018-05-25T04:52:08.128Z,16.80
2018-05-25T04:53:08.148Z,16.20
2018-05-25T04:54:08.170Z,16.20
2018-05-25T04:55:08.191Z,15.70
2018-05-25T04:56:08.213Z,16.10
2018-05-25T04:57:08.235Z,16.20
2018-05-25T04:58:08.256Z,15.30
2018-05-25T04:59:08.278Z,15.90
2018-05-25T05:00:08.299Z,15.40
2018-05-25T05:01:08.324Z,16.20
2018-05-25T05:02:08.342Z,16.00
2018-05-25T05:03:08.363Z,16.70
2018-05-25T05:04:08.392Z,16.50
2018-05-25T05:05:08.406Z,15.70
2018-05-25T05:06:08.428Z,15.60
2018-05-25T05:07:08.452Z,15.70
2018-05-25T05:08:08.471Z,15.30
2018-05-25T05:09:08.493Z,16.20
2018-05-25T05:10:08.516Z,15.50
2018-05-25T05:11:08.537Z,15.20
2018-05-25T05:12:08.558Z,14.80
2018-05-25T05:13:08.580Z,15.60
2018-05-25T05:14:08.600Z,15.70
2018-05-25T05:15:08.623Z,15.90
2018-05-25T05:16:08.646Z,16.10
2018-05-25T05:17:08.666Z,15.40
2018-05-25T05:18:08.688Z,15.50
2018-05-25T05:19:08.710Z,16.00
2018-05-25T05:20:08.731Z,15.90
2018-05-25T05:21:08.754Z,16.50
2018-05-25T05:22:08.774Z,15.70
2018-05-25T05:23:08.875Z,15.80
2018-05-25T05:24:08.818Z,16.20
2018-05-25T05:25:08.839Z,16.40
2018-05-25T05:26:08.861Z,16.20
2018-05-25T05:27:08.882Z,16.60
2018-05-25T05:28:08.904Z,17.20
2018-05-25T05:29:08.927Z,16.40
2018-05-25T05:34:09.033Z,15.80
2018-05-25T05:35:09.054Z,16.00
2018-05-25T05:36:09.079Z,15.30
2018-05-25T05:37:09.098Z,15.00
2018-05-25T05:38:09.120Z,15.90
2018-05-25T05:39:09.141Z,15.90
2018-05-25T05:40:09.165Z,16.20
2018-05-25T05:41:09.185Z,15.00
2018-05-25T05:42:09.206Z,14.80
2018-05-25T05:43:09.228Z,15.20
2018-05-25T05:44:09.250Z,15.00
2018-05-25T05:45:09.272Z,15.30
2018-05-25T05:46:09.295Z,14.80
2018-05-25T05:47:09.315Z,14.60
2018-05-25T05:48:09.337Z,14.80
2018-05-25T05:49:09.359Z,15.10
2018-05-25T05:50:09.380Z,15.90
2018-05-25T05:51:09.403Z,15.30
2018-05-25T05:52:09.424Z,15.20
2018-05-25T05:53:09.447Z,15.10
2018-05-25T05:54:09.468Z,15.30
2018-05-25T05:55:09.490Z,14.70
2018-05-25T05:56:09.513Z,15.40
2018-05-25T05:57:09.533Z,14.10
2018-05-25T05:58:09.554Z,14.70
2018-05-25T05:59:09.578Z,14.90
2018-05-25T06:00:09.600Z,14.70
2018-05-25T06:01:09.621Z,14.00
2018-05-25T06:02:09.643Z,14.90
2018-05-25T06:03:09.666Z,14.20
2018-05-25T06:04:09.686Z,14.10
2018-05-25T06:05:09.713Z,15.00
2018-05-25T06:06:09.731Z,13.40
2018-05-25T06:07:09.752Z,14.60
2018-05-25T06:08:09.787Z,14.00
2018-05-25T06:09:09.798Z,14.20
2018-05-25T06:10:09.819Z,15.00
2018-05-25T06:11:09.839Z,14.10
2018-05-25T06:12:09.864Z,14.90
2018-05-25T06:13:09.884Z,14.20
2018-05-25T06:14:09.905Z,14.30
2018-05-25T06:15:09.931Z,13.80
2018-05-25T06:16:09.950Z,14.50
2018-05-25T06:17:09.973Z,13.70
2018-05-25T06:18:09.995Z,14.90
2018-05-25T06:19:10.016Z,13.90
2018-05-25T06:20:10.040Z,14.30
2018-05-25T06:21:10.061Z,14.00
2018-05-25T06:22:10.082Z,13.40
2018-05-25T06:23:10.105Z,13.40
2018-05-25T06:24:10.129Z,13.30
2018-05-25T06:25:10.156Z,13.60
2018-05-25T06:26:10.176Z,13.40
2018-05-25T06:27:10.202Z,12.80
2018-05-25T06:28:10.223Z,13.20
2018-05-25T06:29:10.239Z,12.30
2018-05-25T06:30:10.261Z,12.80
2018-05-25T06:31:10.284Z,13.20
2018-05-25T06:32:10.307Z,13.00
2018-05-25T06:33:10.328Z,12.80
2018-05-25T06:34:10.350Z,12.60
2018-05-25T06:35:10.373Z,14.00
2018-05-25T06:36:10.396Z,12.70
2018-05-25T06:37:10.418Z,13.10
2018-05-25T06:38:10.441Z,12.80
2018-05-25T06:39:10.465Z,13.20
2018-05-25T06:40:10.491Z,12.70
2018-05-25T06:41:10.513Z,13.10
2018-05-25T06:42:10.530Z,12.70
2018-05-25T06:43:10.552Z,12.60
2018-05-25T06:44:10.576Z,12.90
2018-05-25T06:45:10.599Z,12.80
2018-05-25T06:46:10.622Z,12.10
2018-05-25T06:47:10.644Z,12.70
2018-05-25T06:48:10.667Z,12.40
2018-05-25T06:49:10.689Z,12.40
2018-05-25T06:50:10.711Z,12.60
2018-05-25T06:51:10.735Z,12.60
2018-05-25T06:52:10.759Z,12.40
2018-05-25T06:53:10.782Z,11.70
2018-05-25T06:54:10.804Z,12.10
2018-05-25T06:55:10.826Z,11.80
2018-05-25T06:56:10.849Z,11.30
2018-05-25T06:57:10.900Z,11.80
2018-05-25T06:58:10.896Z,11.50
2018-05-25T06:59:10.920Z,10.70
2018-05-25T07:00:10.944Z,11.50
2018-05-25T07:01:10.967Z,11.80
2018-05-25T07:02:10.989Z,11.30
2018-05-25T07:03:11.013Z,11.40
2018-05-25T07:04:11.036Z,10.90
2018-05-25T07:05:11.061Z,10.70
2018-05-25T07:06:11.085Z,10.70
2018-05-25T07:07:11.109Z,11.00
2018-05-25T07:08:11.134Z,10.60
2018-05-25T07:09:11.159Z,10.50
2018-05-25T07:10:11.181Z,9.80
2018-05-25T07:11:11.207Z,10.00
2018-05-25T07:12:11.231Z,9.40
2018-05-25T07:13:11.257Z,9.80
2018-05-25T07:14:11.284Z,9.40
2018-05-25T07:15:11.304Z,9.80
2018-05-25T07:16:11.331Z,9.30
2018-05-25T07:17:11.361Z,9.30
2018-05-25T07:18:11.380Z,9.10
2018-05-25T07:19:11.407Z,9.40
2018-05-25T07:20:11.433Z,9.40
2018-05-25T07:21:11.457Z,9.40
2018-05-25T07:22:11.484Z,9.30
2018-05-25T07:23:11.510Z,8.50
2018-05-25T07:24:11.536Z,9.10
2018-05-25T07:25:11.565Z,9.20
2018-05-25T07:26:11.589Z,8.80
2018-05-25T07:27:11.613Z,8.80
2018-05-25T07:28:11.640Z,9.10
2018-05-25T07:29:11.668Z,9.10
2018-05-25T07:30:11.694Z,9.00
2018-05-25T07:31:11.719Z,9.00
2018-05-25T07:32:11.749Z,8.60
2018-05-25T07:33:11.775Z,8.60
2018-05-25T07:34:11.802Z,8.70
2018-05-25T07:35:11.828Z,8.20
2018-05-25T07:36:11.857Z,8.40
2018-05-25T07:37:11.890Z,8.10
2018-05-25T07:38:11.911Z,8.00
2018-05-25T07:39:11.939Z,8.00
2018-05-25T07:40:11.966Z,8.50
2018-05-25T07:41:11.996Z,8.70
2018-05-25T07:42:12.020Z,9.20
2018-05-25T07:43:12.049Z,8.30
2018-05-25T07:44:12.078Z,8.50
2018-05-25T07:45:12.106Z,8.00
2018-05-25T07:46:12.133Z,8.20
2018-05-25T07:47:12.167Z,8.90
2018-05-25T07:48:12.189Z,8.90
2018-05-25T07:49:12.217Z,8.70
2018-05-25T07:50:12.244Z,9.00
2018-05-25T07:51:12.274Z,8.80
2018-05-25T07:52:12.301Z,8.80
2018-05-25T07:53:12.329Z,9.00
2018-05-25T07:54:12.357Z,9.50
2018-05-25T07:55:12.383Z,9.40
2018-05-25T07:56:12.413Z,9.60
2018-05-25T07:57:12.440Z,9.00
2018-05-25T07:58:12.467Z,9.10
2018-05-25T07:59:12.495Z,9.20
2018-05-25T08:00:12.525Z,9.40
2018-05-25T08:01:12.558Z,9.70
2018-05-25T08:02:12.578Z,9.60
2018-05-25T08:03:12.610Z,9.30
2018-05-25T08:04:12.634Z,8.40
2018-05-25T08:05:12.664Z,9.30
2018-05-25T08:06:12.691Z,8.50
2018-05-25T08:07:12.718Z,8.00
2018-05-25T08:08:12.747Z,8.90
2018-05-25T08:09:12.775Z,9.10
2018-05-25T08:10:12.804Z,8.50
2018-05-25T08:11:12.831Z,8.30
2018-05-25T08:12:12.860Z,8.60
2018-05-25T08:13:12.890Z,8.40
2018-05-25T08:14:12.916Z,8.50
2018-05-25T08:15:12.947Z,8.40
2018-05-25T08:16:12.975Z,8.60
2018-05-25T08:17:13.007Z,8.30
2018-05-25T08:18:13.033Z,8.50
2018-05-25T08:19:13.061Z,8.40
2018-05-25T08:20:13.096Z,8.30
2018-05-25T08:21:13.119Z,9.20
2018-05-25T08:22:13.148Z,8.70
2018-05-25T08:23:13.178Z,8.60
2018-05-25T08:24:13.208Z,8.70
2018-05-25T08:25:13.242Z,9.70
2018-05-25T08:26:13.266Z,9.00
2018-05-25T08:27:13.297Z,9.20
2018-05-25T08:28:13.326Z,8.70
2018-05-25T08:29:13.357Z,7.90
2018-05-25T08:30:13.411Z,8.70
2018-05-25T08:31:13.416Z,8.90
2018-05-25T08:32:13.445Z,8.80
2018-05-25T08:33:13.476Z,8.60
2018-05-25T08:34:13.505Z,8.80
2018-05-25T08:35:13.535Z,8.90
2018-05-25T08:36:13.566Z,9.20
2018-05-25T08:37:13.596Z,9.00
2018-05-25T08:38:13.627Z,9.10
2018-05-25T08:39:13.658Z,9.20
2018-05-25T08:40:13.687Z,10.00
2018-05-25T08:41:13.718Z,9.40
2018-05-25T08:42:13.748Z,8.80
2018-05-25T08:43:13.829Z,12.90
2018-05-25T08:44:13.810Z,9.70
2018-05-25T08:45:13.842Z,8.40
2018-05-25T08:46:13.870Z,8.40
2018-05-25T08:47:13.901Z,15.00
2018-05-25T08:48:13.933Z,9.00
2018-05-25T08:49:13.965Z,12.80
2018-05-25T08:50:13.995Z,17.40
2018-05-25T08:51:14.026Z,7.70
2018-05-25T08:52:14.055Z,8.20
2018-05-25T08:53:14.087Z,7.90
2018-05-25T08:54:14.117Z,8.00
2018-05-25T08:55:14.188Z,8.00
2018-05-25T08:56:14.180Z,8.10
2018-05-25T08:57:14.217Z,7.70
2018-05-25T08:58:14.243Z,7.50
2018-05-25T08:59:14.273Z,8.00
2018-05-25T09:00:14.304Z,7.70
2018-05-25T09:01:14.349Z,7.80
2018-05-25T09:02:14.364Z,9.20
2018-05-25T09:03:14.396Z,7.50
2018-05-25T09:04:14.428Z,7.20
2018-05-25T09:05:14.466Z,8.10
2018-05-25T09:06:14.491Z,8.30
2018-05-25T09:07:14.521Z,8.20
2018-05-25T09:08:14.553Z,8.00
2018-05-25T09:09:14.588Z,7.40
2018-05-25T09:10:14.617Z,8.10
2018-05-25T09:11:14.648Z,7.50
2018-05-25T09:12:14.678Z,8.10
2018-05-25T09:13:14.710Z,8.30
2018-05-25T09:14:14.742Z,7.90
2018-05-25T09:15:14.775Z,8.30
2018-05-25T09:16:14.806Z,8.00
2018-05-25T09:17:14.837Z,7.60
2018-05-25T09:18:14.872Z,7.90
2018-05-25T09:19:14.900Z,7.50
2018-05-25T09:20:14.932Z,7.80
2018-05-25T09:21:14.963Z,7.60
2018-05-25T09:22:14.995Z,7.60
2018-05-25T09:23:15.028Z,7.60
2018-05-25T09:24:15.057Z,8.30
2018-05-25T09:25:15.090Z,8.50
2018-05-25T09:26:15.124Z,8.20
2018-05-25T09:27:15.153Z,8.10
2018-05-25T09:28:15.185Z,8.10
2018-05-25T09:29:15.215Z,7.80
2018-05-25T09:30:15.248Z,7.80
2018-05-25T09:31:15.278Z,8.10
2018-05-25T09:32:15.311Z,7.20
2018-05-25T09:33:15.342Z,6.60
2018-05-25T09:34:15.374Z,7.10
2018-05-25T09:35:15.407Z,7.10
2018-05-25T09:36:15.458Z,6.60
2018-05-25T09:37:15.470Z,6.50
2018-05-25T09:38:15.501Z,6.90
2018-05-25T09:39:15.534Z,6.20
2018-05-25T09:40:15.566Z,6.60
2018-05-25T09:41:15.601Z,6.40
2018-05-25T09:42:15.633Z,5.70
2018-05-25T09:43:15.662Z,5.70
2018-05-25T09:44:15.694Z,5.10
2018-05-25T09:45:15.728Z,5.50
2018-05-25T09:46:15.759Z,5.40
2018-05-25T09:47:15.790Z,6.00
2018-05-25T09:48:15.823Z,5.70
2018-05-25T09:49:15.857Z,7.60
2018-05-25T09:50:15.887Z,6.60
2018-05-25T09:51:15.923Z,6.70
2018-05-25T09:52:15.953Z,7.50
2018-05-25T09:53:15.987Z,7.90
2018-05-25T09:54:16.016Z,6.80
2018-05-25T09:55:16.049Z,7.80
2018-05-25T09:56:16.085Z,7.30
2018-05-25T09:57:16.114Z,6.50
2018-05-25T09:58:16.145Z,6.80
2018-05-25T09:59:16.178Z,6.70
2018-05-25T10:00:16.211Z,7.10
2018-05-25T10:01:16.243Z,6.70
2018-05-25T10:02:16.274Z,7.30
2018-05-25T10:03:16.337Z,6.90
2018-05-25T10:04:16.339Z,6.60
2018-05-25T10:05:16.372Z,6.30
2018-05-25T10:06:16.404Z,6.20
2018-05-25T10:07:16.437Z,6.10
2018-05-25T10:08:16.470Z,6.20
2018-05-25T10:09:16.505Z,6.80
2018-05-25T10:10:16.536Z,6.30
2018-05-25T10:11:16.567Z,5.90
2018-05-25T10:12:16.599Z,6.20
2018-05-25T10:13:16.633Z,6.50
2018-05-25T10:14:16.663Z,6.70
2018-05-25T10:15:16.695Z,6.70
2018-05-25T10:16:16.729Z,6.20
2018-05-25T10:17:16.761Z,7.00
2018-05-25T10:18:16.793Z,6.90
2018-05-25T10:19:16.826Z,7.00
2018-05-25T10:20:16.858Z,7.50
2018-05-25T10:21:16.890Z,6.90
2018-05-25T10:22:16.922Z,7.60
2018-05-25T10:23:16.955Z,7.50
2018-05-25T10:24:16.988Z,6.30
2018-05-25T10:25:17.020Z,6.60
2018-05-25T10:26:17.051Z,6.90
2018-05-25T10:27:17.084Z,7.10
2018-05-25T10:28:17.115Z,6.90
2018-05-25T10:29:17.146Z,7.80
2018-05-25T10:30:17.177Z,7.70
2018-05-25T10:31:17.209Z,7.10
2018-05-25T10:32:17.243Z,7.10
2018-05-25T10:33:17.271Z,7.30
2018-05-25T10:34:17.302Z,6.40
2018-05-25T10:35:17.344Z,6.30
2018-05-25T10:36:17.370Z,5.90
2018-05-25T10:37:17.394Z,5.60
2018-05-25T10:38:17.426Z,5.20
2018-05-25T10:39:17.457Z,4.90
2018-05-25T10:40:17.488Z,5.40
2018-05-25T10:41:17.575Z,5.50
2018-05-25T10:42:17.550Z,4.70
2018-05-25T10:43:17.578Z,5.40
2018-05-25T10:44:17.609Z,5.20
2018-05-25T10:45:17.639Z,6.00
2018-05-25T10:46:17.671Z,6.00
2018-05-25T10:47:17.700Z,5.10
2018-05-25T10:48:17.732Z,4.70
2018-05-25T10:49:17.763Z,5.70
2018-05-25T10:50:17.795Z,5.40
2018-05-25T10:51:17.826Z,6.20
2018-05-25T10:52:17.856Z,6.10
2018-05-25T10:53:17.888Z,6.10
2018-05-25T10:54:17.919Z,6.20
2018-05-25T10:55:17.952Z,6.00
2018-05-25T10:56:17.984Z,6.20
2018-05-25T10:57:18.015Z,6.80
2018-05-25T10:58:18.047Z,7.80
2018-05-25T10:59:18.078Z,7.10
2018-05-25T11:00:18.111Z,7.30
2018-05-25T11:01:18.142Z,7.60
2018-05-25T11:02:18.174Z,7.20
2018-05-25T11:03:18.205Z,7.40
2018-05-25T11:04:18.238Z,6.40
2018-05-25T11:05:18.270Z,6.40
2018-05-25T11:06:18.301Z,6.50
2018-05-25T11:07:18.332Z,5.90
2018-05-25T11:08:18.365Z,6.20
2018-05-25T11:09:18.397Z,6.70
2018-05-25T11:10:18.427Z,6.70
2018-05-25T11:11:18.458Z,6.70
2018-05-25T11:12:18.491Z,7.40
2018-05-25T11:13:18.523Z,7.10
2018-05-25T11:14:18.558Z,7.00
2018-05-25T11:15:18.586Z,6.40
2018-05-25T11:16:18.617Z,6.00
2018-05-25T11:17:18.650Z,6.00
2018-05-25T11:18:18.681Z,5.80
2018-05-25T11:19:18.712Z,5.30
2018-05-25T11:20:18.748Z,5.40
2018-05-25T11:21:18.777Z,5.00
2018-05-25T11:22:18.809Z,4.90
2018-05-25T11:23:18.839Z,4.50
2018-05-25T11:24:18.872Z,4.60
2018-05-25T11:25:18.905Z,4.40
2018-05-25T11:26:18.936Z,4.10
2018-05-25T11:27:18.969Z,4.00
2018-05-25T11:28:19.002Z,4.40
2018-05-25T11:29:19.033Z,4.20
2018-05-25T11:30:19.065Z,4.50
2018-05-25T11:31:19.097Z,4.90
2018-05-25T11:32:19.129Z,5.20
2018-05-25T11:33:19.160Z,5.00
2018-05-25T11:34:19.193Z,5.30
2018-05-25T11:35:19.225Z,4.90
2018-05-25T11:36:19.256Z,4.60
2018-05-25T11:37:19.322Z,4.30
2018-05-25T11:38:19.320Z,5.00
2018-05-25T11:39:19.349Z,5.30
2018-05-25T11:40:19.381Z,5.00
2018-05-25T11:41:19.412Z,4.90
2018-05-25T11:42:19.442Z,5.30
2018-05-25T11:43:19.473Z,5.20
2018-05-25T11:44:19.503Z,5.10
2018-05-25T11:45:19.533Z,4.50
2018-05-25T11:46:19.565Z,4.30
2018-05-25T11:47:19.593Z,5.50
2018-05-25T11:48:19.626Z,5.30
2018-05-25T11:49:19.655Z,4.60
2018-05-25T11:50:19.683Z,4.50
2018-05-25T11:51:19.714Z,4.50
2018-05-25T11:52:19.745Z,5.10
2018-05-25T11:53:19.773Z,4.60
2018-05-25T11:54:19.804Z,4.90
2018-05-25T11:55:19.833Z,4.50
2018-05-25T11:56:19.862Z,4.60
2018-05-25T11:57:19.902Z,4.70
2018-05-25T11:58:19.921Z,4.80
2018-05-25T11:59:19.950Z,4.70
2018-05-25T12:00:19.981Z,4.80
2018-05-25T12:01:20.010Z,5.30
2018-05-25T12:02:20.038Z,5.80
2018-05-25T12:03:20.066Z,5.50
2018-05-25T12:04:20.095Z,5.30
2018-05-25T12:05:20.124Z,5.40
2018-05-25T12:06:20.151Z,5.20
2018-05-25T12:07:20.180Z,5.00
2018-05-25T12:08:20.208Z,5.70
2018-05-25T12:09:20.238Z,5.90
2018-05-25T12:10:20.266Z,6.50
2018-05-25T12:11:20.294Z,6.20
2018-05-25T12:12:20.325Z,6.30
2018-05-25T12:13:20.351Z,5.70
2018-05-25T12:14:20.379Z,5.30
2018-05-25T12:15:20.407Z,5.30
2018-05-25T12:16:20.438Z,5.30
2018-05-25T12:17:20.462Z,5.00
2018-05-25T12:18:20.489Z,4.80
2018-05-25T12:19:20.519Z,4.40
2018-05-25T12:20:20.546Z,4.80
2018-05-25T12:21:20.575Z,4.60
2018-05-25T12:22:20.602Z,5.20
2018-05-25T12:23:20.630Z,4.80
2018-05-25T12:24:20.658Z,4.50
2018-05-25T12:25:20.688Z,4.40
2018-05-25T12:26:20.714Z,4.80
2018-05-25T12:27:20.747Z,4.70
2018-05-25T12:28:20.772Z,5.20
2018-05-25T12:29:20.802Z,4.90
2018-05-25T12:30:20.829Z,5.00
2018-05-25T12:31:20.858Z,4.40
2018-05-25T12:32:20.887Z,4.30
2018-05-25T12:33:20.916Z,4.90
2018-05-25T12:34:20.944Z,5.40
2018-05-25T12:35:20.972Z,5.00
2018-05-25T12:36:21.003Z,4.80
2018-05-25T12:37:21.031Z,5.00
2018-05-25T12:38:21.064Z,4.80
2018-05-25T12:39:21.093Z,5.00
2018-05-25T12:40:21.118Z,4.70
2018-05-25T12:41:21.149Z,5.20
2018-05-25T12:42:21.177Z,5.00
2018-05-25T12:43:21.206Z,4.80
2018-05-25T12:44:21.235Z,4.30
2018-05-25T12:45:21.264Z,4.40
2018-05-25T12:46:21.294Z,5.00
2018-05-25T12:47:21.323Z,4.50
2018-05-25T12:48:21.351Z,4.60
2018-05-25T12:49:21.382Z,4.50
2018-05-25T12:50:21.409Z,5.60
2018-05-25T12:51:21.438Z,5.20
2018-05-25T12:52:21.468Z,4.90
2018-05-25T12:53:21.497Z,4.90
2018-05-25T12:54:21.525Z,5.30
2018-05-25T12:55:21.554Z,4.90
2018-05-25T12:56:21.583Z,5.10
2018-05-25T12:57:21.615Z,4.90
2018-05-25T12:58:21.641Z,4.80
2018-05-25T12:59:21.670Z,4.70
2018-05-25T13:00:21.698Z,4.30
2018-05-25T13:01:21.727Z,4.40
2018-05-25T13:02:21.755Z,4.30
2018-05-25T13:03:21.785Z,4.00
2018-05-25T13:04:21.813Z,3.60
2018-05-25T13:05:21.841Z,3.70
2018-05-25T13:06:21.868Z,4.00
2018-05-25T13:07:21.897Z,3.50
2018-05-25T13:08:21.926Z,4.40